Time;durP1;ratioP1;P1;durP2;ratioP2;P2;SDS_P1;SDS_P2;PMS_P1;PMS_P2;Temp;Humidity;BMP_temperature;BMP_pressure;BME280_temperature;BME280_humidity;BME280_pressure;Samples;Min_cycle;Max_cycle;Signal;HPM_P1;HPM_P2
2022/01/08 00:00:28;;;;;;;12.57;10.90;;;1.80;1.00;;;;;;5043536;28;20292;-87
2022/01/08 00:02:55;;;;;;;12.38;11.18;;;1.90;1.00;;;;;;5042161;28;20248;-90
2022/01/08 00:05:22;;;;;;;13.48;11.60;;;1.90;1.00;;;;;;5038489;28;20552;-88
2022/01/08 00:07:49;;;;;;;12.15;10.85;;;2.00;1.00;;;;;;5044363;28;20261;-87
2022/01/08 00:10:16;;;;;;;11.50;10.30;;;2.00;1.00;;;;;;5047197;28;20221;-88
2022/01/08 00:12:43;;;;;;;12.35;10.80;;;2.10;1.00;;;;;;5053584;28;20280;-89
2022/01/08 00:15:10;;;;;;;13.10;11.20;;;2.00;1.00;;;;;;5050715;28;20218;-86
2022/01/08 00:20:31;;;;;;;11.52;10.38;;;1.90;1.00;;;;;;5045693;28;20269;-88
2022/01/08 00:22:58;;;;;;;12.40;11.25;;;1.80;1.00;;;;;;5057568;28;20259;-89
2022/01/08 00:25:25;;;;;;;13.02;11.18;;;1.80;1.00;;;;;;5062589;28;20214;-81
2022/01/08 00:27:51;;;;;;;14.13;12.57;;;1.70;1.00;;;;;;5065317;28;20244;-81
2022/01/08 00:30:18;;;;;;;13.25;11.82;;;1.70;1.00;;;;;;5058376;28;20591;-82
2022/01/08 00:32:47;;;;;;;14.07;12.57;;;1.70;1.00;;;;;;5067785;28;20285;-82
2022/01/08 00:35:14;;;;;;;12.35;11.15;;;1.70;1.00;;;;;;5063981;28;20215;-84
2022/01/08 00:37:42;;;;;;;14.45;12.35;;;1.70;1.00;;;;;;5062111;28;20206;-82
2022/01/08 00:40:11;;;;;;;13.90;11.98;;;1.60;1.00;;;;;;5060170;28;20240;-83
2022/01/08 00:42:39;;;;;;;13.30;11.90;;;1.60;1.00;;;;;;5042891;28;20230;-86
2022/01/08 00:45:07;;;;;;;11.93;10.73;;;1.60;1.00;;;;;;5020800;28;20495;-84
2022/01/08 00:47:34;;;;;;;14.68;12.70;;;1.50;1.00;;;;;;5046471;28;20285;-84
2022/01/08 00:50:03;;;;;;;16.02;13.07;;;1.50;1.00;;;;;;5046829;28;20226;-84
2022/01/08 00:52:33;;;;;;;12.40;11.10;;;1.40;1.00;;;;;;5027984;28;20313;-85
2022/01/08 00:55:00;;;;;;;13.15;11.88;;;1.40;1.00;;;;;;5023029;28;20222;-85
2022/01/08 00:57:27;;;;;;;13.95;12.10;;;1.30;1.00;;;;;;5042012;28;20309;-86
2022/01/08 00:59:54;;;;;;;13.50;11.80;;;1.30;1.00;;;;;;5038607;28;20238;-85
2022/01/08 01:02:20;;;;;;;14.43;12.63;;;1.30;1.00;;;;;;5025753;28;20314;-84
2022/01/08 01:04:47;;;;;;;13.20;11.80;;;1.30;1.00;;;;;;5038200;28;20285;-85
2022/01/08 01:07:16;;;;;;;14.18;12.77;;;1.30;1.00;;;;;;5049780;28;20230;-84
2022/01/08 01:09:43;;;;;;;14.23;12.73;;;1.30;1.00;;;;;;5030623;28;20249;-83
2022/01/08 01:12:10;;;;;;;14.27;12.85;;;1.30;1.00;;;;;;5043786;28;20221;-85
2022/01/08 01:14:36;;;;;;;14.27;12.25;;;1.40;1.00;;;;;;5045319;28;20222;-85
2022/01/08 01:17:04;;;;;;;13.98;12.48;;;1.40;1.00;;;;;;5046748;28;20285;-84
2022/01/08 01:19:31;;;;;;;15.55;13.70;;;1.40;1.00;;;;;;5022058;28;20234;-84
2022/01/08 01:21:59;;;;;;;15.30;13.48;;;1.40;1.00;;;;;;5046131;28;20232;-86
2022/01/08 01:24:29;;;;;;;16.38;13.55;;;1.50;1.00;;;;;;5045844;28;20237;-84
2022/01/08 01:27:19;;;;;;;14.77;13.23;;;1.50;1.00;;;;;;5037691;28;20237;-85
2022/01/08 01:29:53;;;;;;;17.58;14.18;;;1.50;1.00;;;;;;5042547;28;20229;-85
2022/01/08 01:48:45;;;;;;;15.63;13.82;;;1.70;1.00;;;;;;5049740;28;20255;-83
2022/01/08 01:51:19;;;;;;;14.95;13.32;;;1.70;1.00;;;;;;5046655;28;20214;-84
2022/01/08 01:53:46;;;;;;;16.75;14.65;;;1.70;1.00;;;;;;5041314;28;20216;-84
2022/01/08 01:56:16;;;;;;;16.48;14.43;;;1.80;1.00;;;;;;5046375;28;20280;-82
2022/01/08 01:58:43;;;;;;;18.75;13.70;;;1.80;1.00;;;;;;5046203;28;20226;-84
2022/01/08 02:01:10;;;;;;;15.80;14.20;;;1.80;1.00;;;;;;5042256;28;20227;-83
2022/01/08 02:03:37;;;;;;;14.55;12.80;;;1.80;1.00;;;;;;5041884;28;20242;-84
2022/01/08 02:06:04;;;;;;;16.02;12.75;;;1.70;1.00;;;;;;5037919;28;20277;-83
2022/01/08 02:08:30;;;;;;;14.70;12.98;;;1.60;1.00;;;;;;5045047;28;21048;-84
2022/01/08 02:10:57;;;;;;;15.35;13.73;;;1.60;1.00;;;;;;5039062;28;20245;-84
2022/01/08 02:13:28;;;;;;;14.95;13.02;;;1.70;1.00;;;;;;5041916;28;20299;-84
2022/01/08 02:15:57;;;;;;;15.88;13.27;;;1.70;1.00;;;;;;5042929;28;20313;-83
2022/01/08 02:18:26;;;;;;;16.20;13.25;;;1.70;1.00;;;;;;5039439;28;21527;-83
2022/01/08 02:20:55;;;;;;;15.10;13.10;;;1.70;1.00;;;;;;5044673;28;20304;-82
2022/01/08 02:23:22;;;;;;;15.55;13.90;;;1.70;1.00;;;;;;5040609;28;20241;-82
2022/01/08 02:25:49;;;;;;;16.60;13.65;;;1.70;1.00;;;;;;5040166;28;20225;-83
2022/01/08 02:28:16;;;;;;;19.70;14.02;;;1.60;1.00;;;;;;5040687;28;21121;-83
2022/01/08 02:30:43;;;;;;;16.08;12.55;;;1.70;1.00;;;;;;5044373;28;20481;-83
2022/01/08 02:33:13;;;;;;;17.48;13.55;;;1.70;1.00;;;;;;5045254;28;20218;-83
2022/01/08 02:35:40;;;;;;;17.85;13.13;;;1.70;1.00;;;;;;5043856;28;20253;-82
2022/01/08 02:38:08;;;;;;;15.25;13.68;;;1.70;1.00;;;;;;5044138;28;20392;-82
2022/01/08 02:40:36;;;;;;;15.45;12.82;;;1.70;1.00;;;;;;5044076;28;20283;-83
2022/01/08 02:43:04;;;;;;;15.70;13.13;;;1.70;1.00;;;;;;5040561;28;22406;-83
2022/01/08 02:45:31;;;;;;;15.93;12.43;;;1.80;1.00;;;;;;5038918;28;20236;-84
2022/01/08 02:47:59;;;;;;;18.25;13.32;;;1.90;1.00;;;;;;5039859;28;20288;-84
2022/01/08 02:50:26;;;;;;;14.48;12.43;;;1.90;1.00;;;;;;5041458;28;20740;-84
2022/01/08 02:52:52;;;;;;;15.65;11.93;;;1.90;1.00;;;;;;5036847;28;20241;-84
2022/01/08 02:55:22;;;;;;;13.82;12.35;;;1.90;1.00;;;;;;5045260;28;21535;-84
2022/01/08 02:57:49;;;;;;;16.55;13.20;;;1.90;1.00;;;;;;5056636;28;20217;-83
2022/01/08 03:00:18;;;;;;;16.58;13.63;;;2.00;1.00;;;;;;5053822;28;20359;-82
2022/01/08 03:02:47;;;;;;;15.48;12.70;;;2.00;1.00;;;;;;5033474;28;20246;-84
2022/01/08 03:05:14;;;;;;;16.05;13.15;;;2.00;1.00;;;;;;5048208;28;20233;-84
2022/01/08 03:07:41;;;;;;;14.68;12.75;;;2.10;1.00;;;;;;5045798;28;20273;-81
2022/01/08 03:10:10;;;;;;;14.40;12.38;;;2.10;1.00;;;;;;5049495;28;20285;-82
2022/01/08 03:12:41;;;;;;;12.90;11.60;;;2.10;1.00;;;;;;5059593;28;20448;-82
2022/01/08 03:15:10;;;;;;;12.90;11.55;;;2.10;1.00;;;;;;5062364;28;20836;-86
2022/01/08 03:17:36;;;;;;;13.82;11.85;;;2.20;1.00;;;;;;5040401;28;20292;-86
2022/01/08 03:20:06;;;;;;;14.25;11.63;;;2.20;1.00;;;;;;5044098;22;20241;-86
2022/01/08 03:22:34;;;;;;;14.50;12.75;;;2.20;1.00;;;;;;5023125;28;20214;-86
2022/01/08 03:25:01;;;;;;;14.63;13.13;;;2.20;1.00;;;;;;5033919;28;20342;-87
2022/01/08 03:27:29;;;;;;;15.70;12.95;;;2.20;1.00;;;;;;5013038;28;20285;-86
2022/01/08 03:29:57;;;;;;;16.35;12.88;;;2.10;1.00;;;;;;5006142;28;20230;-87
2022/01/08 03:32:24;;;;;;;15.10;11.73;;;2.10;1.00;;;;;;5002245;28;20228;-84
2022/01/08 03:34:51;;;;;;;16.45;14.35;;;2.10;1.00;;;;;;5005860;28;20257;-83
2022/01/08 03:37:18;;;;;;;15.30;13.52;;;2.10;1.00;;;;;;4998351;28;20261;-83
2022/01/08 03:39:45;;;;;;;14.57;12.40;;;2.10;1.00;;;;;;4994854;28;20226;-84
2022/01/08 03:42:12;;;;;;;16.85;13.20;;;2.10;1.00;;;;;;4998696;28;20255;-81
2022/01/08 03:44:39;;;;;;;15.23;12.40;;;2.10;1.00;;;;;;5000019;28;20316;-84
2022/01/08 03:47:29;;;;;;;15.93;12.50;;;2.10;1.00;;;;;;4996170;28;21176;-82
2022/01/08 03:49:57;;;;;;;15.60;12.45;;;2.10;1.00;;;;;;5003781;28;20222;-84
2022/01/08 03:52:24;;;;;;;16.60;12.88;;;2.20;1.00;;;;;;4985001;28;20329;-84
2022/01/08 03:54:51;;;;;;;17.13;13.40;;;2.20;1.00;;;;;;5000745;28;20310;-84
2022/01/08 03:57:17;;;;;;;15.80;13.05;;;2.20;1.00;;;;;;4996460;28;20290;-81
2022/01/08 03:59:44;;;;;;;14.95;13.32;;;2.20;1.00;;;;;;5001226;28;20247;-81
2022/01/08 04:02:12;;;;;;;16.05;12.90;;;2.20;1.00;;;;;;5001375;28;20285;-83
2022/01/08 04:04:39;;;;;;;16.98;13.07;;;2.20;1.00;;;;;;5003892;28;20990;-83
2022/01/08 04:07:05;;;;;;;14.00;12.50;;;2.20;1.00;;;;;;4999909;28;20250;-85
2022/01/08 04:09:32;;;;;;;14.90;12.95;;;2.10;1.00;;;;;;5002448;28;20309;-82
2022/01/08 04:11:59;;;;;;;14.60;13.10;;;2.00;1.00;;;;;;5011392;28;20237;-85
2022/01/08 04:14:34;;;;;;;13.77;12.25;;;2.00;1.00;;;;;;5002949;28;20282;-82
2022/01/08 04:17:01;;;;;;;15.65;12.43;;;2.00;1.00;;;;;;5004897;28;21587;-83
2022/01/08 04:19:29;;;;;;;16.50;13.82;;;2.00;1.00;;;;;;5008742;28;20261;-83
2022/01/08 04:22:10;;;;;;;14.48;12.05;;;2.00;1.00;;;;;;5009298;28;20225;-81
2022/01/08 04:24:37;;;;;;;14.95;12.98;;;2.00;1.00;;;;;;5006039;28;20348;-83
2022/01/08 04:27:04;;;;;;;16.05;13.30;;;2.00;1.00;;;;;;5009444;28;20237;-82
2022/01/08 04:29:30;;;;;;;14.02;12.52;;;2.00;1.00;;;;;;5008864;28;20326;-83
2022/01/08 04:31:57;;;;;;;15.00;12.07;;;2.00;1.00;;;;;;5004205;28;20215;-82
2022/01/08 04:34:24;;;;;;;16.85;13.30;;;2.10;1.00;;;;;;5003335;28;20302;-83
2022/01/08 04:36:52;;;;;;;15.40;13.15;;;2.10;1.00;;;;;;5004902;28;20302;-83
2022/01/08 04:39:19;;;;;;;16.45;13.65;;;2.10;1.00;;;;;;5003546;28;20290;-84
2022/01/08 04:41:45;;;;;;;17.42;12.90;;;2.10;1.00;;;;;;5009445;28;20672;-82
2022/01/08 04:44:12;;;;;;;16.48;12.98;;;2.10;1.00;;;;;;4982228;28;20238;-81
2022/01/08 04:46:41;;;;;;;16.20;13.18;;;2.10;1.00;;;;;;5004341;28;20246;-84
2022/01/08 04:49:07;;;;;;;16.40;13.73;;;2.10;1.00;;;;;;5004193;28;20231;-82
2022/01/08 04:51:34;;;;;;;17.40;13.88;;;2.10;1.00;;;;;;5005335;28;20219;-83
2022/01/08 04:54:02;;;;;;;15.00;12.50;;;2.10;1.00;;;;;;4997550;28;20322;-84
2022/01/08 04:56:29;;;;;;;15.85;12.85;;;2.10;1.00;;;;;;5000504;28;20227;-84
2022/01/08 04:58:56;;;;;;;16.90;13.38;;;2.10;1.00;;;;;;4996490;28;20227;-84
2022/01/08 05:01:22;;;;;;;14.63;13.13;;;2.10;1.00;;;;;;5004990;28;20227;-81
2022/01/08 05:03:49;;;;;;;15.35;13.32;;;2.20;1.00;;;;;;5009637;28;20231;-82
2022/01/08 05:06:16;;;;;;;15.30;12.75;;;2.20;1.00;;;;;;5014075;28;20354;-82
2022/01/08 05:08:42;;;;;;;15.45;13.27;;;2.20;1.00;;;;;;5020315;28;20223;-84
2022/01/08 05:11:10;;;;;;;16.10;12.75;;;2.20;1.00;;;;;;5003037;28;20242;-83
2022/01/08 05:13:38;;;;;;;16.45;13.18;;;2.20;1.00;;;;;;4993565;28;21086;-83
2022/01/08 05:16:05;;;;;;;16.05;13.15;;;2.20;1.00;;;;;;5014797;28;20223;-81
2022/01/08 05:18:32;;;;;;;15.85;13.38;;;2.20;1.00;;;;;;5023997;28;20310;-79
2022/01/08 05:21:10;;;;;;;16.27;13.80;;;2.20;1.00;;;;;;5013815;28;20218;-80
2022/01/08 05:23:37;;;;;;;14.98;12.65;;;2.30;1.00;;;;;;5025972;28;20211;-82
2022/01/08 05:26:03;;;;;;;13.95;12.20;;;2.30;1.00;;;;;;5025469;28;20903;-82
2022/01/08 05:28:31;;;;;;;14.07;11.77;;;2.30;1.00;;;;;;5002355;28;20294;-83
2022/01/08 05:30:58;;;;;;;13.60;11.65;;;2.30;1.00;;;;;;5001647;28;20223;-82
2022/01/08 05:33:25;;;;;;;13.80;11.77;;;2.30;1.00;;;;;;5003434;28;20900;-84
2022/01/08 05:35:52;;;;;;;13.80;11.45;;;2.20;1.00;;;;;;5001240;28;20747;-81
2022/01/08 05:38:18;;;;;;;15.77;12.38;;;2.20;1.00;;;;;;4997848;28;20222;-83
2022/01/08 05:40:46;;;;;;;15.45;12.70;;;2.20;1.00;;;;;;4995949;28;20937;-82
2022/01/08 05:43:12;;;;;;;14.15;11.63;;;2.20;1.00;;;;;;5004736;28;20218;-84
2022/01/08 05:45:40;;;;;;;13.60;12.20;;;2.20;1.00;;;;;;5000530;28;20322;-82
2022/01/08 05:48:08;;;;;;;15.73;12.48;;;2.20;1.00;;;;;;5013074;28;21309;-80
2022/01/08 05:50:35;;;;;;;15.43;12.25;;;2.10;1.00;;;;;;5020714;28;20255;-83
2022/01/08 05:53:02;;;;;;;13.07;10.98;;;2.10;1.00;;;;;;5007488;28;20511;-82
2022/01/08 05:55:28;;;;;;;16.15;11.80;;;2.10;1.00;;;;;;4999211;28;20235;-82
2022/01/08 05:57:55;;;;;;;13.00;10.95;;;2.10;1.00;;;;;;5004210;28;20229;-83
2022/01/08 06:00:22;;;;;;;14.20;12.25;;;2.10;1.00;;;;;;5004041;28;20367;-82
2022/01/08 06:02:50;;;;;;;14.80;12.10;;;2.10;1.00;;;;;;5002628;28;20222;-82
2022/01/08 06:05:17;;;;;;;14.10;11.65;;;2.10;1.00;;;;;;4986104;28;20249;-82
2022/01/08 06:07:43;;;;;;;14.25;12.75;;;2.00;1.00;;;;;;5006647;28;20294;-84
2022/01/08 06:10:10;;;;;;;14.93;13.00;;;2.00;1.00;;;;;;5006253;28;20233;-83
2022/01/08 06:12:37;;;;;;;14.95;13.27;;;2.00;1.00;;;;;;4998813;28;20224;-82
2022/01/08 06:15:04;;;;;;;16.55;14.40;;;2.00;1.00;;;;;;4999874;28;20238;-84
2022/01/08 06:17:31;;;;;;;15.88;13.38;;;2.00;1.00;;;;;;4984345;28;20728;-83
2022/01/08 06:19:59;;;;;;;15.27;12.10;;;1.90;1.00;;;;;;5007193;28;20322;-83
2022/01/08 06:22:25;;;;;;;13.18;11.77;;;1.90;1.00;;;;;;5004067;28;20229;-83
2022/01/08 06:24:52;;;;;;;14.02;12.52;;;1.90;1.00;;;;;;5006681;28;20250;-83
2022/01/08 06:27:20;;;;;;;15.13;13.27;;;1.90;1.00;;;;;;5004138;28;21149;-83
2022/01/08 06:29:46;;;;;;;15.13;11.85;;;1.90;1.00;;;;;;5003901;28;20219;-82
2022/01/08 06:32:14;;;;;;;14.25;12.68;;;2.00;1.00;;;;;;4993781;28;20302;-83
2022/01/08 06:34:41;;;;;;;15.77;12.75;;;2.00;1.00;;;;;;5001414;28;20215;-82
2022/01/08 06:37:09;;;;;;;15.00;13.43;;;2.10;1.00;;;;;;5008589;28;20441;-84
2022/01/08 06:39:35;;;;;;;14.00;12.10;;;2.20;1.00;;;;;;5003866;28;20225;-84
2022/01/08 06:42:02;;;;;;;16.98;13.93;;;2.30;1.00;;;;;;5008496;28;21429;-84
2022/01/08 06:44:29;;;;;;;15.05;12.23;;;2.40;1.00;;;;;;5003880;28;20689;-83
2022/01/08 06:46:55;;;;;;;12.85;11.13;;;2.40;1.00;;;;;;4999374;28;20298;-80
2022/01/08 06:49:22;;;;;;;15.93;13.55;;;2.40;1.00;;;;;;5003892;28;20269;-82
2022/01/08 06:51:50;;;;;;;17.88;15.15;;;2.50;1.00;;;;;;5000693;28;20237;-81
2022/01/08 06:54:18;;;;;;;14.55;12.60;;;2.50;1.00;;;;;;5005232;28;20223;-83
2022/01/08 06:56:44;;;;;;;14.60;12.90;;;2.50;1.00;;;;;;4992144;28;20302;-82
2022/01/08 06:59:11;;;;;;;13.73;12.32;;;2.60;1.00;;;;;;5023935;28;21717;-80
2022/01/08 07:01:38;;;;;;;15.20;13.13;;;2.60;1.00;;;;;;5023846;28;20402;-82
2022/01/08 07:04:05;;;;;;;15.38;12.70;;;2.50;1.00;;;;;;5026442;28;21147;-84
2022/01/08 07:06:32;;;;;;;14.05;12.18;;;2.50;1.00;;;;;;4999393;28;21834;-83
2022/01/08 07:08:58;;;;;;;15.10;12.75;;;2.50;1.00;;;;;;5005664;28;20233;-84
2022/01/08 07:11:26;;;;;;;14.80;12.45;;;2.40;1.00;;;;;;5007765;28;20257;-84
2022/01/08 07:13:53;;;;;;;16.02;13.43;;;2.40;1.00;;;;;;5010397;28;20247;-86
2022/01/08 07:16:20;;;;;;;15.95;12.65;;;2.50;1.00;;;;;;4989098;28;20220;-83
2022/01/08 07:18:46;;;;;;;16.70;12.88;;;2.50;1.00;;;;;;5005402;28;20270;-83
2022/01/08 07:21:13;;;;;;;17.98;12.57;;;2.50;1.00;;;;;;4998811;28;20709;-81
2022/01/08 07:23:40;;;;;;;15.57;13.60;;;2.50;1.00;;;;;;5002982;28;20234;-80
2022/01/08 07:26:07;;;;;;;15.82;13.10;;;2.50;1.00;;;;;;5003600;28;21077;-80
2022/01/08 07:28:34;;;;;;;17.65;12.85;;;2.60;1.00;;;;;;5003101;28;20719;-82
2022/01/08 07:31:01;;;;;;;16.75;14.95;;;2.70;1.00;;;;;;4999821;28;22189;-81
2022/01/08 07:33:28;;;;;;;14.65;12.90;;;2.70;1.00;;;;;;5002817;28;20227;-81
2022/01/08 07:35:54;;;;;;;16.63;13.10;;;2.70;1.00;;;;;;5016151;28;20246;-81
2022/01/08 07:38:22;;;;;;;15.38;12.48;;;2.70;1.00;;;;;;4989311;28;20227;-84
2022/01/08 07:40:51;;;;;;;14.35;12.65;;;2.60;1.00;;;;;;5003669;28;20235;-84
2022/01/08 07:43:17;;;;;;;14.90;13.30;;;2.60;1.00;;;;;;4998547;28;20259;-81
2022/01/08 07:45:46;;;;;;;14.77;13.23;;;2.50;1.00;;;;;;5001448;28;20239;-84
2022/01/08 07:48:12;;;;;;;15.45;12.38;;;2.50;1.00;;;;;;4997870;28;20239;-83
2022/01/08 07:50:39;;;;;;;15.05;12.80;;;2.50;1.00;;;;;;5000095;28;21151;-84
2022/01/08 07:53:06;;;;;;;15.07;13.48;;;2.50;1.00;;;;;;4999029;28;20974;-85
2022/01/08 07:55:32;;;;;;;16.83;12.90;;;2.50;1.00;;;;;;4982751;28;20234;-83
2022/01/08 07:57:59;;;;;;;16.52;13.70;;;2.40;1.00;;;;;;5001167;28;21040;-85
2022/01/08 08:00:26;;;;;;;19.33;12.82;;;2.40;1.00;;;;;;4997714;28;20219;-82
2022/01/08 08:02:54;;;;;;;15.23;12.40;;;2.40;1.00;;;;;;4995709;28;20227;-84
2022/01/08 08:05:20;;;;;;;14.27;12.50;;;2.40;1.00;;;;;;4997275;28;20314;-83
2022/01/08 08:07:47;;;;;;;15.32;12.90;;;2.40;1.00;;;;;;5002212;28;20274;-82
2022/01/08 08:10:17;;;;;;;15.68;13.40;;;2.40;1.00;;;;;;4999661;28;20370;-84
2022/01/08 08:12:44;;;;;;;16.30;13.10;;;2.30;1.00;;;;;;4998116;28;20219;-84
2022/01/08 08:15:15;;;;;;;17.77;14.55;;;2.30;1.00;;;;;;5000064;28;20219;-84
2022/01/08 08:17:41;;;;;;;16.00;13.75;;;2.30;1.00;;;;;;4995250;28;20226;-82
2022/01/08 08:20:11;;;;;;;15.70;13.77;;;2.30;1.00;;;;;;5003320;28;20291;-83
2022/01/08 08:22:37;;;;;;;17.00;12.75;;;2.30;1.00;;;;;;5020155;28;20278;-84
2022/01/08 08:25:05;;;;;;;16.45;13.32;;;2.30;1.00;;;;;;5017151;28;20219;-84
2022/01/08 08:27:32;;;;;;;16.20;12.90;;;2.30;1.00;;;;;;4990478;28;20226;-82
2022/01/08 08:29:59;;;;;;;17.02;12.70;;;2.30;1.00;;;;;;4995985;28;21141;-82
2022/01/08 08:32:26;;;;;;;16.30;13.65;;;2.40;1.00;;;;;;4992118;28;20252;-83
2022/01/08 08:34:52;;;;;;;15.73;13.95;;;2.40;1.00;;;;;;4992134;28;20231;-83
2022/01/08 08:37:21;;;;;;;16.60;13.50;;;2.50;1.00;;;;;;4997987;28;20311;-84
2022/01/08 08:39:48;;;;;;;14.00;12.52;;;2.50;1.00;;;;;;4977956;28;20275;-80
2022/01/08 08:42:17;;;;;;;15.57;13.38;;;2.60;1.00;;;;;;4979825;28;20234;-81
2022/01/08 08:44:45;;;;;;;19.55;13.95;;;2.60;1.00;;;;;;4973171;28;20361;-81
2022/01/08 08:47:12;;;;;;;15.68;13.20;;;2.60;1.00;;;;;;4979634;28;20375;-80
2022/01/08 08:49:39;;;;;;;17.75;13.27;;;2.60;1.00;;;;;;4999082;28;20230;-79
2022/01/08 08:52:06;;;;;;;14.85;12.27;;;2.60;1.00;;;;;;4996439;28;21077;-79
2022/01/08 08:54:34;;;;;;;17.20;14.07;;;2.60;1.00;;;;;;4993207;28;20327;-79
2022/01/08 08:57:00;;;;;;;13.52;11.73;;;2.60;1.00;;;;;;4996440;28;20302;-80
2022/01/08 08:59:27;;;;;;;17.08;14.38;;;2.60;1.00;;;;;;5000311;28;20227;-80
2022/01/08 09:01:56;;;;;;;15.65;12.52;;;2.50;1.00;;;;;;5000527;28;20218;-80
2022/01/08 09:04:23;;;;;;;15.68;13.18;;;2.50;1.00;;;;;;5006353;28;20263;-79
2022/01/08 09:06:50;;;;;;;17.90;13.43;;;2.50;1.00;;;;;;5009247;28;20230;-80
2022/01/08 09:09:17;;;;;;;15.35;12.98;;;2.50;1.00;;;;;;5006179;28;21144;-79
2022/01/08 09:11:45;;;;;;;16.17;14.07;;;2.50;1.00;;;;;;4988879;28;20261;-79
2022/01/08 09:14:11;;;;;;;15.57;13.30;;;2.40;1.00;;;;;;5003139;28;20303;-78
2022/01/08 09:16:45;;;;;;;13.13;11.73;;;2.50;1.00;;;;;;5000814;28;20270;-77
2022/01/08 09:19:12;;;;;;;14.80;12.52;;;2.50;1.00;;;;;;4996828;28;20333;-78
2022/01/08 09:21:38;;;;;;;15.00;12.38;;;2.40;1.00;;;;;;5011827;28;20262;-77
2022/01/08 09:24:05;;;;;;;13.52;12.07;;;2.40;1.00;;;;;;5008505;28;20219;-81
2022/01/08 09:26:32;;;;;;;14.90;13.25;;;2.50;1.00;;;;;;5008156;28;20266;-81
2022/01/08 09:29:00;;;;;;;15.43;13.27;;;2.60;1.00;;;;;;5003929;28;20279;-82
2022/01/08 09:31:27;;;;;;;14.95;13.35;;;2.60;1.00;;;;;;5013999;28;20254;-80
2022/01/08 09:33:54;;;;;;;15.43;12.80;;;2.80;1.00;;;;;;5023360;28;20242;-78
2022/01/08 09:36:20;;;;;;;17.50;14.57;;;2.90;1.00;;;;;;5000759;28;20359;-79
2022/01/08 09:38:47;;;;;;;16.25;13.70;;;3.00;1.00;;;;;;4994160;28;20333;-83
2022/01/08 09:41:14;;;;;;;15.43;13.55;;;3.20;1.00;;;;;;5011261;28;20791;-81
2022/01/08 09:43:41;;;;;;;14.85;13.27;;;3.20;1.00;;;;;;5007638;28;20227;-79
2022/01/08 09:46:09;;;;;;;12.77;11.48;;;3.40;1.00;;;;;;5010925;28;20245;-78
2022/01/08 09:48:36;;;;;;;14.52;13.02;;;3.50;1.00;;;;;;5018382;28;20321;-80
2022/01/08 09:51:02;;;;;;;15.43;12.38;;;3.50;1.00;;;;;;5006563;28;20329;-78
2022/01/08 09:53:29;;;;;;;32.40;24.08;;;3.70;1.00;;;;;;4983959;28;20242;-79
2022/01/08 09:55:56;;;;;;;16.02;13.10;;;3.90;1.00;;;;;;5006214;28;20298;-78
2022/01/08 09:58:23;;;;;;;13.85;12.45;;;3.90;1.00;;;;;;5006817;28;20275;-80
2022/01/08 10:00:50;;;;;;;13.45;12.10;;;3.90;1.00;;;;;;5005122;28;20251;-79
2022/01/08 10:03:20;;;;;;;14.52;12.48;;;3.80;1.00;;;;;;5009221;28;20219;-80
2022/01/08 10:05:49;;;;;;;14.07;11.52;;;3.90;1.00;;;;;;5007111;28;20279;-80
2022/01/08 10:08:16;;;;;;;13.25;11.85;;;4.00;1.00;;;;;;5004754;28;20785;-78
2022/01/08 10:10:56;;;;;;;12.50;11.00;;;4.10;1.00;;;;;;5008927;28;20632;-77
2022/01/08 10:13:25;;;;;;;13.65;12.25;;;3.90;1.00;;;;;;5008363;28;20791;-78
2022/01/08 10:18:40;;;;;;;13.65;11.50;;;3.70;1.00;;;;;;5008914;28;20873;-80
2022/01/08 10:21:19;;;;;;;12.70;11.40;;;3.50;1.00;;;;;;5006933;28;20326;-80
2022/01/08 10:23:50;;;;;;;12.85;11.55;;;3.40;1.00;;;;;;5009318;28;20309;-80
2022/01/08 10:26:19;;;;;;;14.70;12.27;;;3.40;1.00;;;;;;5003299;28;20674;-79
2022/01/08 10:28:49;;;;;;;14.85;12.43;;;3.30;1.00;;;;;;5006636;28;20298;-79
2022/01/08 10:31:19;;;;;;;13.75;11.80;;;3.20;1.00;;;;;;5002009;28;20307;-81
2022/01/08 10:33:50;;;;;;;13.52;12.15;;;3.20;1.00;;;;;;5005084;28;20310;-79
2022/01/08 10:36:27;;;;;;;13.38;11.90;;;3.20;1.00;;;;;;5004044;28;20275;-78
2022/01/08 10:38:55;;;;;;;14.13;12.60;;;3.30;1.00;;;;;;5007408;28;20684;-80
2022/01/08 10:41:24;;;;;;;15.38;12.63;;;3.40;1.00;;;;;;5007447;28;20223;-79
2022/01/08 10:44:10;;;;;;;14.55;13.05;;;3.50;1.00;;;;;;5007451;28;20215;-79
2022/01/08 10:46:37;;;;;;;16.65;12.35;;;3.80;1.00;;;;;;5003766;28;20243;-80
2022/01/08 10:49:06;;;;;;;14.88;12.60;;;4.10;1.00;;;;;;4991296;28;20222;-81
2022/01/08 10:51:37;;;;;;;18.35;13.68;;;4.20;1.00;;;;;;5012828;28;20254;-82
2022/01/08 10:54:08;;;;;;;14.65;12.18;;;4.60;1.00;;;;;;5021752;28;20234;-80
2022/01/08 10:56:37;;;;;;;18.48;15.20;;;5.20;1.00;;;;;;5012804;28;20238;-79
2022/01/08 10:59:06;;;;;;;13.60;12.18;;;5.80;1.00;;;;;;5014341;28;20238;-80
2022/01/08 11:01:55;;;;;;;15.48;11.80;;;5.90;1.00;;;;;;5029656;28;20234;-80
2022/01/08 11:04:38;;;;;;;12.77;11.43;;;6.10;1.00;;;;;;4999809;28;20234;-81
2022/01/08 11:07:07;;;;;;;13.20;11.05;;;6.90;1.00;;;;;;5007443;28;21015;-81
2022/01/08 11:09:36;;;;;;;16.02;14.25;;;7.80;1.00;;;;;;5007178;28;20258;-82
2022/01/08 11:12:05;;;;;;;14.00;11.15;;;8.00;1.00;;;;;;5010527;28;20236;-82
2022/01/08 11:14:59;;;;;;;11.80;10.70;;;8.30;1.00;;;;;;5006239;28;20891;-79
2022/01/08 11:17:28;;;;;;;24.05;20.95;;;8.10;1.00;;;;;;5006105;28;20227;-82
2022/01/08 11:19:59;;;;;;;12.65;10.45;;;7.70;1.00;;;;;;5006298;28;20226;-83
2022/01/08 11:22:27;;;;;;;12.63;10.93;;;7.70;1.00;;;;;;5003484;28;20306;-82
2022/01/08 11:24:57;;;;;;;13.02;11.38;;;8.10;1.00;;;;;;5008718;28;20222;-80
2022/01/08 11:27:27;;;;;;;12.75;10.77;;;8.30;1.00;;;;;;5003392;28;20235;-82
2022/01/08 11:30:10;;;;;;;12.32;10.73;;;8.20;1.00;;;;;;5008243;28;21497;-79
2022/01/08 11:32:38;;;;;;;11.23;9.63;;;7.90;1.00;;;;;;5009420;28;20277;-80
2022/01/08 11:35:10;;;;;;;11.35;10.07;;;8.20;1.00;;;;;;4987511;28;20741;-81
2022/01/08 11:37:37;;;;;;;12.15;10.38;;;8.30;1.00;;;;;;5011423;28;20788;-81
2022/01/08 11:40:08;;;;;;;11.27;10.25;;;8.20;1.00;;;;;;5008738;28;20222;-81
2022/01/08 11:42:38;;;;;;;11.80;10.02;;;7.90;1.00;;;;;;5006229;28;20271;-80
2022/01/08 11:45:09;;;;;;;11.25;10.10;;;7.30;1.00;;;;;;5004046;28;20226;-82
2022/01/08 11:47:36;;;;;;;12.38;10.57;;;6.90;1.00;;;;;;5002728;28;20230;-82
2022/01/08 11:50:08;;;;;;;10.73;8.90;;;6.30;1.00;;;;;;5004381;28;20321;-81
2022/01/08 11:52:35;;;;;;;11.40;10.30;;;5.80;1.00;;;;;;5007135;28;21258;-80
2022/01/08 11:55:02;;;;;;;12.00;10.80;;;5.50;1.00;;;;;;5001241;28;20223;-80
2022/01/08 11:57:31;;;;;;;10.75;9.65;;;5.40;1.00;;;;;;5002793;28;20889;-80
2022/01/08 11:59:59;;;;;;;9.30;8.30;;;5.30;1.00;;;;;;5008370;28;20223;-79
2022/01/08 12:02:41;;;;;;;10.13;8.85;;;5.00;1.00;;;;;;5003109;28;20265;-80
2022/01/08 12:05:13;;;;;;;10.13;8.40;;;4.80;1.00;;;;;;5007625;28;20706;-79
2022/01/08 12:07:45;;;;;;;10.30;8.48;;;4.80;1.00;;;;;;5004547;28;20264;-79
2022/01/08 12:10:20;;;;;;;10.70;9.18;;;4.60;1.00;;;;;;5008936;28;21073;-79
2022/01/08 12:12:50;;;;;;;11.82;8.18;;;4.60;1.00;;;;;;5006920;28;20226;-79
2022/01/08 12:15:18;;;;;;;8.95;6.70;;;4.50;1.00;;;;;;5021078;28;20227;-79
2022/01/08 12:17:56;;;;;;;8.77;7.88;;;4.40;1.00;;;;;;5020917;28;20237;-80
2022/01/08 12:20:48;;;;;;;10.90;8.07;;;4.40;1.00;;;;;;5006037;28;21029;-79
2022/01/08 12:23:33;;;;;;;11.13;9.88;;;4.40;1.00;;;;;;5000294;28;20314;-82
2022/01/08 12:26:03;;;;;;;11.20;8.48;;;4.20;1.00;;;;;;5004715;28;20226;-80
2022/01/08 12:28:45;;;;;;;10.30;8.13;;;4.10;1.00;;;;;;5000913;28;20326;-79
2022/01/08 12:31:36;;;;;;;10.93;9.30;;;4.10;1.00;;;;;;5008821;28;20281;-78
2022/01/08 12:34:23;;;;;;;12.38;9.30;;;4.00;1.00;;;;;;5016094;28;20230;-81
2022/01/08 12:36:56;;;;;;;12.02;8.88;;;3.90;1.00;;;;;;5006589;28;20231;-80
2022/01/08 12:39:46;;;;;;;11.93;9.23;;;4.00;1.00;;;;;;5009598;28;20471;-80
2022/01/08 12:42:47;;;;;;;11.48;8.57;;;4.00;1.00;;;;;;4985797;28;20231;-79
2022/01/08 12:45:19;;;;;;;9.70;8.35;;;4.60;1.00;;;;;;4907930;29;20946;-80
2022/01/08 12:47:49;;;;;;;12.48;8.48;;;5.50;1.00;;;;;;4902540;29;20246;-81
2022/01/08 12:50:28;;;;;;;11.10;9.55;;;6.80;1.00;;;;;;4971341;28;20258;-77
2022/01/08 12:53:19;;;;;;;12.43;8.20;;;7.90;1.00;;;;;;4984050;28;20223;-77
2022/01/08 12:56:10;;;;;;;9.20;7.13;;;9.50;1.00;;;;;;4991692;28;20212;-78
2022/01/08 12:58:49;;;;;;;10.65;8.30;;;11.20;1.00;;;;;;4989893;28;20511;-77
2022/01/08 13:01:18;;;;;;;9.00;7.47;;;12.50;1.00;;;;;;5002012;28;20267;-78
2022/01/08 13:03:46;;;;;;;17.30;12.63;;;12.60;1.00;;;;;;4988555;28;20537;-77
2022/01/08 13:06:28;;;;;;;13.10;9.17;;;12.20;1.00;;;;;;4993417;28;20486;-77
2022/01/08 13:08:57;;;;;;;9.60;7.90;;;12.00;1.00;;;;;;4999667;28;20463;-78
2022/01/08 13:11:26;;;;;;;8.30;7.40;;;11.40;1.00;;;;;;5000408;28;20457;-80
2022/01/08 13:13:56;;;;;;;7.23;6.53;;;11.00;1.00;;;;;;5000810;28;20994;-80
2022/01/08 13:16:26;;;;;;;9.43;8.23;;;11.60;1.00;;;;;;5003635;28;20466;-79
2022/01/08 13:18:55;;;;;;;10.20;7.50;;;12.20;1.00;;;;;;5006509;28;20556;-78